﻿<?xml version="1.0" encoding="UTF-8" standalone="no" ?>
<gpx xmlns="http://www.topografix.com/GPX/1/1" creator="CompeGPS" version="1.1" xmlns:xsi="http://www.w3.org/2001/XMLSchema-instance" xsi:schemaLocation="http://www.topografix.com/GPX/1/1 http://www.topografix.com/GPX/1/1/gpx.xsd http://www.garmin.com/xmlschemas/GpxExtensions/v3 http://www.garmin.com/xmlschemas/GpxExtensionsv3.xsd http://www.garmin.com/xmlschemas/TrackPointExtension/v1 http://www.garmin.com/xmlschemas/TrackPointExtensionv1.xsd" xmlns:gpxtpx="http://www.garmin.com/xmlschemas/TrackPointExtension/v1">
  <wpt lat="38.955651" lon="-5.241052">
    <ele>454.0</ele>
    <time>2019-06-04T18:19:18Z</time>
    <name>Cementerio</name>
    <desc></desc>
    <sym>Oil Field</sym>
  </wpt>
  <wpt lat="38.948912" lon="-5.227490">
    <ele>455.0</ele>
    <time>2019-06-04T18:19:37Z</time>
    <name>Mirador-Observatorio</name>
    <desc></desc>
    <sym>Oil Field</sym>
  </wpt>
  <trk>
    <name>SL-BA XX Agua y Estrellas</name>
    <desc>SL-BA XX Agua y Estrellas</desc>
    <trkseg>
      <trkpt lat="38.955712" lon="-5.240865">
        <ele>454.3</ele>
        <time>2019-06-04T06:57:18.000Z</time>
      </trkpt>
      <trkpt lat="38.955712" lon="-5.240865">
        <ele>454.3</ele>
        <time>2019-06-04T06:57:18.000Z</time>
      </trkpt>
      <trkpt lat="38.955768" lon="-5.240845">
        <ele>454.4</ele>
        <time>2019-06-04T06:57:23.000Z</time>
      </trkpt>
      <trkpt lat="38.955757" lon="-5.240776">
        <ele>455.2</ele>
        <time>2019-06-04T06:57:29.000Z</time>
      </trkpt>
      <trkpt lat="38.955702" lon="-5.240707">
        <ele>456.0</ele>
        <time>2019-06-04T06:57:37.000Z</time>
      </trkpt>
      <trkpt lat="38.955568" lon="-5.240473">
        <ele>458.0</ele>
        <time>2019-06-04T06:57:59.000Z</time>
      </trkpt>
      <trkpt lat="38.955512" lon="-5.240372">
        <ele>459.0</ele>
        <time>2019-06-04T06:58:9.000Z</time>
      </trkpt>
      <trkpt lat="38.955456" lon="-5.240218">
        <ele>460.0</ele>
        <time>2019-06-04T06:58:22.000Z</time>
      </trkpt>
      <trkpt lat="38.955379" lon="-5.240070">
        <ele>461.0</ele>
        <time>2019-06-04T06:58:36.000Z</time>
      </trkpt>
      <trkpt lat="38.955184" lon="-5.239781">
        <ele>461.8</ele>
        <time>2019-06-04T06:59:6.000Z</time>
      </trkpt>
      <trkpt lat="38.955045" lon="-5.239550">
        <ele>462.5</ele>
        <time>2019-06-04T06:59:28.000Z</time>
      </trkpt>
      <trkpt lat="38.954995" lon="-5.239424">
        <ele>463.0</ele>
        <time>2019-06-04T06:59:39.000Z</time>
      </trkpt>
      <trkpt lat="38.954853" lon="-5.238943">
        <ele>464.6</ele>
        <time>2019-06-04T07:00:19.000Z</time>
      </trkpt>
      <trkpt lat="38.954759" lon="-5.238668">
        <ele>464.8</ele>
        <time>2019-06-04T07:00:43.000Z</time>
      </trkpt>
      <trkpt lat="38.954651" lon="-5.238455">
        <ele>464.1</ele>
        <time>2019-06-04T07:01:2.000Z</time>
      </trkpt>
      <trkpt lat="38.954537" lon="-5.238175">
        <ele>464.5</ele>
        <time>2019-06-04T07:01:27.000Z</time>
      </trkpt>
      <trkpt lat="38.954489" lon="-5.237982">
        <ele>464.2</ele>
        <time>2019-06-04T07:01:43.000Z</time>
      </trkpt>
      <trkpt lat="38.954439" lon="-5.237864">
        <ele>464.8</ele>
        <time>2019-06-04T07:01:53.000Z</time>
      </trkpt>
      <trkpt lat="38.954331" lon="-5.237757">
        <ele>463.9</ele>
        <time>2019-06-04T07:02:7.000Z</time>
      </trkpt>
      <trkpt lat="38.954228" lon="-5.237620">
        <ele>463.3</ele>
        <time>2019-06-04T07:02:22.000Z</time>
      </trkpt>
      <trkpt lat="38.954167" lon="-5.237438">
        <ele>465.7</ele>
        <time>2019-06-04T07:02:37.000Z</time>
      </trkpt>
      <trkpt lat="38.954122" lon="-5.237306">
        <ele>467.0</ele>
        <time>2019-06-04T07:02:49.000Z</time>
      </trkpt>
      <trkpt lat="38.954052" lon="-5.237183">
        <ele>466.7</ele>
        <time>2019-06-04T07:03:0.000Z</time>
      </trkpt>
      <trkpt lat="38.953956" lon="-5.236998">
        <ele>467.8</ele>
        <time>2019-06-04T07:03:18.000Z</time>
      </trkpt>
      <trkpt lat="38.953783" lon="-5.236716">
        <ele>468.9</ele>
        <time>2019-06-04T07:03:46.000Z</time>
      </trkpt>
      <trkpt lat="38.953704" lon="-5.236574">
        <ele>468.6</ele>
        <time>2019-06-04T07:03:59.000Z</time>
      </trkpt>
      <trkpt lat="38.953653" lon="-5.236428">
        <ele>469.8</ele>
        <time>2019-06-04T07:04:12.000Z</time>
      </trkpt>
      <trkpt lat="38.953535" lon="-5.236297">
        <ele>468.7</ele>
        <time>2019-06-04T07:04:27.000Z</time>
      </trkpt>
      <trkpt lat="38.953347" lon="-5.236229">
        <ele>466.9</ele>
        <time>2019-06-04T07:04:47.000Z</time>
      </trkpt>
      <trkpt lat="38.953199" lon="-5.236127">
        <ele>466.5</ele>
        <time>2019-06-04T07:05:4.000Z</time>
      </trkpt>
      <trkpt lat="38.953045" lon="-5.235902">
        <ele>466.2</ele>
        <time>2019-06-04T07:05:27.000Z</time>
      </trkpt>
      <trkpt lat="38.952980" lon="-5.235788">
        <ele>465.2</ele>
        <time>2019-06-04T07:05:38.000Z</time>
      </trkpt>
      <trkpt lat="38.952941" lon="-5.235664">
        <ele>465.4</ele>
        <time>2019-06-04T07:05:48.000Z</time>
      </trkpt>
      <trkpt lat="38.952923" lon="-5.235505">
        <ele>465.1</ele>
        <time>2019-06-04T07:06:1.000Z</time>
      </trkpt>
      <trkpt lat="38.952870" lon="-5.235362">
        <ele>465.2</ele>
        <time>2019-06-04T07:06:13.000Z</time>
      </trkpt>
      <trkpt lat="38.952726" lon="-5.235227">
        <ele>462.7</ele>
        <time>2019-06-04T07:06:31.000Z</time>
      </trkpt>
      <trkpt lat="38.952643" lon="-5.235046">
        <ele>463.2</ele>
        <time>2019-06-04T07:06:47.000Z</time>
      </trkpt>
      <trkpt lat="38.952633" lon="-5.234929">
        <ele>463.1</ele>
        <time>2019-06-04T07:06:57.000Z</time>
      </trkpt>
      <trkpt lat="38.952579" lon="-5.234750">
        <ele>463.5</ele>
        <time>2019-06-04T07:07:12.000Z</time>
      </trkpt>
      <trkpt lat="38.952455" lon="-5.234583">
        <ele>464.0</ele>
        <time>2019-06-04T07:07:29.000Z</time>
      </trkpt>
      <trkpt lat="38.952306" lon="-5.234422">
        <ele>462.8</ele>
        <time>2019-06-04T07:07:49.000Z</time>
      </trkpt>
      <trkpt lat="38.952184" lon="-5.234252">
        <ele>461.4</ele>
        <time>2019-06-04T07:08:7.000Z</time>
      </trkpt>
      <trkpt lat="38.951982" lon="-5.234030">
        <ele>458.8</ele>
        <time>2019-06-04T07:08:34.000Z</time>
      </trkpt>
      <trkpt lat="38.951899" lon="-5.233889">
        <ele>459.3</ele>
        <time>2019-06-04T07:08:47.000Z</time>
      </trkpt>
      <trkpt lat="38.951774" lon="-5.233806">
        <ele>457.1</ele>
        <time>2019-06-04T07:09:2.000Z</time>
      </trkpt>
      <trkpt lat="38.951659" lon="-5.233495">
        <ele>459.6</ele>
        <time>2019-06-04T07:09:28.000Z</time>
      </trkpt>
      <trkpt lat="38.951468" lon="-5.232961">
        <ele>462.7</ele>
        <time>2019-06-04T07:10:14.000Z</time>
      </trkpt>
      <trkpt lat="38.951335" lon="-5.232699">
        <ele>464.2</ele>
        <time>2019-06-04T07:10:39.000Z</time>
      </trkpt>
      <trkpt lat="38.951202" lon="-5.232564">
        <ele>463.2</ele>
        <time>2019-06-04T07:10:56.000Z</time>
      </trkpt>
      <trkpt lat="38.950985" lon="-5.232298">
        <ele>461.8</ele>
        <time>2019-06-04T07:11:26.000Z</time>
      </trkpt>
      <trkpt lat="38.950773" lon="-5.232104">
        <ele>461.8</ele>
        <time>2019-06-04T07:11:52.000Z</time>
      </trkpt>
      <trkpt lat="38.950588" lon="-5.231859">
        <ele>462.2</ele>
        <time>2019-06-04T07:12:18.000Z</time>
      </trkpt>
      <trkpt lat="38.950264" lon="-5.231520">
        <ele>462.1</ele>
        <time>2019-06-04T07:13:0.000Z</time>
      </trkpt>
      <trkpt lat="38.949909" lon="-5.231088">
        <ele>462.3</ele>
        <time>2019-06-04T07:13:49.000Z</time>
      </trkpt>
      <trkpt lat="38.949725" lon="-5.230896">
        <ele>461.9</ele>
        <time>2019-06-04T07:14:12.000Z</time>
      </trkpt>
      <trkpt lat="38.949486" lon="-5.230418">
        <ele>464.0</ele>
        <time>2019-06-04T07:14:57.000Z</time>
      </trkpt>
      <trkpt lat="38.949295" lon="-5.230128">
        <ele>462.5</ele>
        <time>2019-06-04T07:15:26.000Z</time>
      </trkpt>
      <trkpt lat="38.949076" lon="-5.229697">
        <ele>462.7</ele>
        <time>2019-06-04T07:16:6.000Z</time>
      </trkpt>
      <trkpt lat="38.949064" lon="-5.229543">
        <ele>463.3</ele>
        <time>2019-06-04T07:16:18.000Z</time>
      </trkpt>
      <trkpt lat="38.948995" lon="-5.229225">
        <ele>463.0</ele>
        <time>2019-06-04T07:16:44.000Z</time>
      </trkpt>
      <trkpt lat="38.948955" lon="-5.228935">
        <ele>462.3</ele>
        <time>2019-06-04T07:17:7.000Z</time>
      </trkpt>
      <trkpt lat="38.948940" lon="-5.228560">
        <ele>462.0</ele>
        <time>2019-06-04T07:17:36.000Z</time>
      </trkpt>
      <trkpt lat="38.948842" lon="-5.228305">
        <ele>460.3</ele>
        <time>2019-06-04T07:17:58.000Z</time>
      </trkpt>
      <trkpt lat="38.948812" lon="-5.228105">
        <ele>458.4</ele>
        <time>2019-06-04T07:18:14.000Z</time>
      </trkpt>
      <trkpt lat="38.948806" lon="-5.227864">
        <ele>456.4</ele>
        <time>2019-06-04T07:18:33.000Z</time>
      </trkpt>
      <trkpt lat="38.948827" lon="-5.227762">
        <ele>455.8</ele>
        <time>2019-06-04T07:18:41.000Z</time>
      </trkpt>
      <trkpt lat="38.948851" lon="-5.227702">
        <ele>455.9</ele>
        <time>2019-06-04T07:18:46.000Z</time>
      </trkpt>
      <trkpt lat="38.948933" lon="-5.227513">
        <ele>455.2</ele>
        <time>2019-06-04T07:19:3.000Z</time>
      </trkpt>
      <trkpt lat="38.948917" lon="-5.227500">
        <ele>454.7</ele>
        <time>2019-06-04T07:19:5.000Z</time>
      </trkpt>
      <trkpt lat="38.948817" lon="-5.227750">
        <ele>455.2</ele>
        <time>2019-06-04T07:19:27.000Z</time>
      </trkpt>
      <trkpt lat="38.948800" lon="-5.227850">
        <ele>456.0</ele>
        <time>2019-06-04T07:19:35.000Z</time>
      </trkpt>
      <trkpt lat="38.948800" lon="-5.228100">
        <ele>457.8</ele>
        <time>2019-06-04T07:19:54.000Z</time>
      </trkpt>
      <trkpt lat="38.948833" lon="-5.228300">
        <ele>460.2</ele>
        <time>2019-06-04T07:20:10.000Z</time>
      </trkpt>
      <trkpt lat="38.948933" lon="-5.228550">
        <ele>461.9</ele>
        <time>2019-06-04T07:20:32.000Z</time>
      </trkpt>
      <trkpt lat="38.948950" lon="-5.228933">
        <ele>462.2</ele>
        <time>2019-06-04T07:21:2.000Z</time>
      </trkpt>
      <trkpt lat="38.948983" lon="-5.229217">
        <ele>462.8</ele>
        <time>2019-06-04T07:21:24.000Z</time>
      </trkpt>
      <trkpt lat="38.949050" lon="-5.229533">
        <ele>462.9</ele>
        <time>2019-06-04T07:21:50.000Z</time>
      </trkpt>
      <trkpt lat="38.949067" lon="-5.229683">
        <ele>462.4</ele>
        <time>2019-06-04T07:22:2.000Z</time>
      </trkpt>
      <trkpt lat="38.949283" lon="-5.230117">
        <ele>462.4</ele>
        <time>2019-06-04T07:22:42.000Z</time>
      </trkpt>
      <trkpt lat="38.949483" lon="-5.230417">
        <ele>464.0</ele>
        <time>2019-06-04T07:23:12.000Z</time>
      </trkpt>
      <trkpt lat="38.949717" lon="-5.230883">
        <ele>461.9</ele>
        <time>2019-06-04T07:23:56.000Z</time>
      </trkpt>
      <trkpt lat="38.949900" lon="-5.231083">
        <ele>462.2</ele>
        <time>2019-06-04T07:24:20.000Z</time>
      </trkpt>
      <trkpt lat="38.950250" lon="-5.231517">
        <ele>461.9</ele>
        <time>2019-06-04T07:25:8.000Z</time>
      </trkpt>
      <trkpt lat="38.950583" lon="-5.231850">
        <ele>462.5</ele>
        <time>2019-06-04T07:25:50.000Z</time>
      </trkpt>
      <trkpt lat="38.950767" lon="-5.232100">
        <ele>461.7</ele>
        <time>2019-06-04T07:26:17.000Z</time>
      </trkpt>
      <trkpt lat="38.950983" lon="-5.232283">
        <ele>462.1</ele>
        <time>2019-06-04T07:26:43.000Z</time>
      </trkpt>
      <trkpt lat="38.951200" lon="-5.232550">
        <ele>463.2</ele>
        <time>2019-06-04T07:27:13.000Z</time>
      </trkpt>
      <trkpt lat="38.951333" lon="-5.232683">
        <ele>464.5</ele>
        <time>2019-06-04T07:27:30.000Z</time>
      </trkpt>
      <trkpt lat="38.951467" lon="-5.232950">
        <ele>462.9</ele>
        <time>2019-06-04T07:27:55.000Z</time>
      </trkpt>
      <trkpt lat="38.951650" lon="-5.233483">
        <ele>459.7</ele>
        <time>2019-06-04T07:28:40.000Z</time>
      </trkpt>
      <trkpt lat="38.951767" lon="-5.233800">
        <ele>457.0</ele>
        <time>2019-06-04T07:29:7.000Z</time>
      </trkpt>
      <trkpt lat="38.951883" lon="-5.233883">
        <ele>459.1</ele>
        <time>2019-06-04T07:29:21.000Z</time>
      </trkpt>
      <trkpt lat="38.951967" lon="-5.234017">
        <ele>458.7</ele>
        <time>2019-06-04T07:29:34.000Z</time>
      </trkpt>
      <trkpt lat="38.952183" lon="-5.234250">
        <ele>461.4</ele>
        <time>2019-06-04T07:30:2.000Z</time>
      </trkpt>
      <trkpt lat="38.952300" lon="-5.234417">
        <ele>462.8</ele>
        <time>2019-06-04T07:30:20.000Z</time>
      </trkpt>
      <trkpt lat="38.952450" lon="-5.234567">
        <ele>463.9</ele>
        <time>2019-06-04T07:30:39.000Z</time>
      </trkpt>
      <trkpt lat="38.952567" lon="-5.234733">
        <ele>463.5</ele>
        <time>2019-06-04T07:30:56.000Z</time>
      </trkpt>
      <trkpt lat="38.952617" lon="-5.234917">
        <ele>462.8</ele>
        <time>2019-06-04T07:31:11.000Z</time>
      </trkpt>
      <trkpt lat="38.952633" lon="-5.235033">
        <ele>463.1</ele>
        <time>2019-06-04T07:31:21.000Z</time>
      </trkpt>
      <trkpt lat="38.952717" lon="-5.235217">
        <ele>462.5</ele>
        <time>2019-06-04T07:31:37.000Z</time>
      </trkpt>
      <trkpt lat="38.952867" lon="-5.235350">
        <ele>465.1</ele>
        <time>2019-06-04T07:31:56.000Z</time>
      </trkpt>
      <trkpt lat="38.952917" lon="-5.235500">
        <ele>465.0</ele>
        <time>2019-06-04T07:32:8.000Z</time>
      </trkpt>
      <trkpt lat="38.952933" lon="-5.235650">
        <ele>465.3</ele>
        <time>2019-06-04T07:32:20.000Z</time>
      </trkpt>
      <trkpt lat="38.952967" lon="-5.235783">
        <ele>464.9</ele>
        <time>2019-06-04T07:32:31.000Z</time>
      </trkpt>
      <trkpt lat="38.953033" lon="-5.235900">
        <ele>466.0</ele>
        <time>2019-06-04T07:32:42.000Z</time>
      </trkpt>
      <trkpt lat="38.953183" lon="-5.236117">
        <ele>466.5</ele>
        <time>2019-06-04T07:33:5.000Z</time>
      </trkpt>
      <trkpt lat="38.953333" lon="-5.236217">
        <ele>466.9</ele>
        <time>2019-06-04T07:33:22.000Z</time>
      </trkpt>
      <trkpt lat="38.953533" lon="-5.236283">
        <ele>468.9</ele>
        <time>2019-06-04T07:33:42.000Z</time>
      </trkpt>
      <trkpt lat="38.953650" lon="-5.236417">
        <ele>469.8</ele>
        <time>2019-06-04T07:33:58.000Z</time>
      </trkpt>
      <trkpt lat="38.953700" lon="-5.236567">
        <ele>468.6</ele>
        <time>2019-06-04T07:34:11.000Z</time>
      </trkpt>
      <trkpt lat="38.953767" lon="-5.236700">
        <ele>468.4</ele>
        <time>2019-06-04T07:34:23.000Z</time>
      </trkpt>
      <trkpt lat="38.953950" lon="-5.236983">
        <ele>467.9</ele>
        <time>2019-06-04T07:34:52.000Z</time>
      </trkpt>
      <trkpt lat="38.954050" lon="-5.237183">
        <ele>466.6</ele>
        <time>2019-06-04T07:35:10.000Z</time>
      </trkpt>
      <trkpt lat="38.954117" lon="-5.237300">
        <ele>467.1</ele>
        <time>2019-06-04T07:35:21.000Z</time>
      </trkpt>
      <trkpt lat="38.954167" lon="-5.237433">
        <ele>465.7</ele>
        <time>2019-06-04T07:35:33.000Z</time>
      </trkpt>
      <trkpt lat="38.954217" lon="-5.237617">
        <ele>463.2</ele>
        <time>2019-06-04T07:35:48.000Z</time>
      </trkpt>
      <trkpt lat="38.954317" lon="-5.237750">
        <ele>463.8</ele>
        <time>2019-06-04T07:36:3.000Z</time>
      </trkpt>
      <trkpt lat="38.954433" lon="-5.237850">
        <ele>464.6</ele>
        <time>2019-06-04T07:36:17.000Z</time>
      </trkpt>
      <trkpt lat="38.954483" lon="-5.237967">
        <ele>464.2</ele>
        <time>2019-06-04T07:36:27.000Z</time>
      </trkpt>
      <trkpt lat="38.954533" lon="-5.238167">
        <ele>464.6</ele>
        <time>2019-06-04T07:36:43.000Z</time>
      </trkpt>
      <trkpt lat="38.954650" lon="-5.238450">
        <ele>464.0</ele>
        <time>2019-06-04T07:37:8.000Z</time>
      </trkpt>
      <trkpt lat="38.954750" lon="-5.238667">
        <ele>464.5</ele>
        <time>2019-06-04T07:37:28.000Z</time>
      </trkpt>
      <trkpt lat="38.954850" lon="-5.238933">
        <ele>464.5</ele>
        <time>2019-06-04T07:37:51.000Z</time>
      </trkpt>
      <trkpt lat="38.954983" lon="-5.239417">
        <ele>462.8</ele>
        <time>2019-06-04T07:38:31.000Z</time>
      </trkpt>
      <trkpt lat="38.955033" lon="-5.239533">
        <ele>462.4</ele>
        <time>2019-06-04T07:38:41.000Z</time>
      </trkpt>
      <trkpt lat="38.955183" lon="-5.239767">
        <ele>462.0</ele>
        <time>2019-06-04T07:39:5.000Z</time>
      </trkpt>
      <trkpt lat="38.955367" lon="-5.240067">
        <ele>461.0</ele>
        <time>2019-06-04T07:39:34.000Z</time>
      </trkpt>
      <trkpt lat="38.955450" lon="-5.240217">
        <ele>459.9</ele>
        <time>2019-06-04T07:39:49.000Z</time>
      </trkpt>
      <trkpt lat="38.955500" lon="-5.240367">
        <ele>458.9</ele>
        <time>2019-06-04T07:40:1.000Z</time>
      </trkpt>
      <trkpt lat="38.955567" lon="-5.240467">
        <ele>458.0</ele>
        <time>2019-06-04T07:40:12.000Z</time>
      </trkpt>
      <trkpt lat="38.955700" lon="-5.240700">
        <ele>456.0</ele>
        <time>2019-06-04T07:40:34.000Z</time>
      </trkpt>
      <trkpt lat="38.955750" lon="-5.240767">
        <ele>455.4</ele>
        <time>2019-06-04T07:40:41.000Z</time>
      </trkpt>
      <trkpt lat="38.955767" lon="-5.240833">
        <ele>454.6</ele>
        <time>2019-06-04T07:40:47.000Z</time>
      </trkpt>
      <trkpt lat="38.955700" lon="-5.240850">
        <ele>454.6</ele>
        <time>2019-06-04T07:40:54.000Z</time>
      </trkpt>
    </trkseg>
  </trk>
</gpx>
